MT WASHINGTON (MTW)

Elevation: 920' · LOS ANGELES R basin · Operator: Los Angeles County Fire Dept

Query executed Tuesday at 4:14:44   clock

Provisional data, subject to change.
Select a sensor type for a plot of data.

Earlier

Date   /   Time   RAIN     TEMP     REL HUM     BAR PRE     FUEL MS     FUEL TP     WIND SP     WIND DR     PEAK WS     PEAK WD     SOLAR R     BAT VOL    
(PDT)INCHES   DEG F   %   INCHES   %   DEG F   MPH   DEG   MPH   DEG   W/M^2   VOLTS  
09/15/2014 05:00 5.09 75 57 -- 8 73 -- -- -- -- 0.00 12.3
09/15/2014 06:00 5.09 77 44 -- 8 74 -- -- -- -- 4.00 12.4
09/15/2014 07:00 5.09 83 41 -- 8 80 -- -- -- -- 119.00 13.3
09/15/2014 08:00 5.09 89 33 -- 8 83 -- -- -- -- 306.00 13.4
09/15/2014 09:00 5.09 96 27 -- 7 96 -- -- -- -- 491.00 13.3
09/15/2014 10:00 5.09 98 23 -- 7 105 -- -- -- -- 643.00 13.3
09/15/2014 11:00 5.09 100 22 -- 6 113 -- -- -- -- 749.00 13.3
09/15/2014 12:00 5.09 100 26 -- 5 116 -- -- -- -- 800.00 13.3
09/15/2014 13:00 5.09 104 19 -- 5 120 -- -- -- -- 794.00 13.3
09/15/2014 14:00 5.09 101 18 -- 5 114 -- -- -- -- 721.00 13.3
09/15/2014 15:00 5.09 102 18 -- 5 112 -- -- -- -- 371.00 13.2
09/15/2014 16:00 5.09 98 18 -- 4 99 -- -- -- -- 295.00 13.3
09/15/2014 17:00 5.09 96 22 -- 5 95 -- -- -- -- 114.00 12.6
09/15/2014 18:00 5.09 94 22 -- 5 92 -- -- -- -- 15.00 12.5
09/15/2014 19:00 5.09 92 22 -- 5 90 -- -- -- -- 1.00 12.5
09/15/2014 20:00 5.09 89 26 -- 5 87 -- -- -- -- 0.00 12.5
09/15/2014 21:00 5.09 88 28 -- 5 85 -- -- -- -- 0.00 12.5
09/15/2014 22:00 5.09 83 39 -- 5 82 -- -- -- -- 0.00 12.5
09/15/2014 23:00 5.09 82 42 -- 6 80 -- -- -- -- 0.00 12.5
09/16/2014 00:00 5.09 82 39 -- 6 81 -- -- -- -- 0.00 12.4
09/16/2014 01:00 5.09 80 44 -- 6 79 -- -- -- -- 0.00 12.4
09/16/2014 02:00 5.09 81 40 -- 6 79 -- -- -- -- 0.00 12.4
09/16/2014 03:00 5.09 81 43 -- 7 78 -- -- -- -- 0.00 12.4
09/16/2014 04:00 -- -- -- -- -- -- -- -- -- -- -- --

Later | Latest

Warning! This data is preliminary and subject to revision.

Download Data Now Download Data Now | Show MTW Map | 24 Hours MTW Data | Plot all MTW Sensors | Daily MTW Data | MTW Info